sensor_id;sensor_type;location;lat;lon;timestamp;pressure;altitude;pressure_sealevel;temperature;humidity
62592;BME280;48659;41.622;2.276;2023-12-20T00:01:01;100367.24;;;5.25;44.75
62592;BME280;48659;41.622;2.276;2023-12-20T00:03:29;100363.49;;;5.25;44.12
62592;BME280;48659;41.622;2.276;2023-12-20T00:05:56;100362.12;;;3.88;47.18
62592;BME280;48659;41.622;2.276;2023-12-20T00:08:24;100357.89;;;5.15;44.63
62592;BME280;48659;41.622;2.276;2023-12-20T00:11:10;100356.95;;;5.01;45.56
62592;BME280;48659;41.622;2.276;2023-12-20T00:13:38;100351.21;;;5.58;43.99
62592;BME280;48659;41.622;2.276;2023-12-20T00:16:05;100350.27;;;5.45;44.25
62592;BME280;48659;41.622;2.276;2023-12-20T00:18:33;100363.54;;;4.36;46.36
62592;BME280;48659;41.622;2.276;2023-12-20T00:21:00;100357.85;;;5.68;44.94
62592;BME280;48659;41.622;2.276;2023-12-20T00:23:28;100354.39;;;5.72;43.85
62592;BME280;48659;41.622;2.276;2023-12-20T00:25:55;100357.80;;;5.63;43.76
62592;BME280;48659;41.622;2.276;2023-12-20T00:28:22;100370.50;;;5.37;43.99
62592;BME280;48659;41.622;2.276;2023-12-20T00:30:57;100371.50;;;5.10;44.44
62592;BME280;48659;41.622;2.276;2023-12-20T00:33:24;100375.00;;;4.84;44.97
62592;BME280;48659;41.622;2.276;2023-12-20T00:35:57;100384.74;;;1.91;51.11
62592;BME280;48659;41.622;2.276;2023-12-20T00:38:25;100370.76;;;3.68;48.59
62592;BME280;48659;41.622;2.276;2023-12-20T00:40:52;100358.59;;;5.25;45.31
62592;BME280;48659;41.622;2.276;2023-12-20T00:43:20;100355.28;;;5.34;44.57
62592;BME280;48659;41.622;2.276;2023-12-20T00:45:58;100350.05;;;5.05;45.45
62592;BME280;48659;41.622;2.276;2023-12-20T00:48:25;100344.45;;;5.13;44.62
62592;BME280;48659;41.622;2.276;2023-12-20T00:50:53;100339.15;;;5.48;43.89
62592;BME280;48659;41.622;2.276;2023-12-20T00:53:22;100339.57;;;5.06;45.25
62592;BME280;48659;41.622;2.276;2023-12-20T00:55:57;100327.52;;;5.33;44.41
62592;BME280;48659;41.622;2.276;2023-12-20T00:58:24;100320.27;;;4.93;44.61
62592;BME280;48659;41.622;2.276;2023-12-20T01:01:01;100325.79;;;4.48;45.35
62592;BME280;48659;41.622;2.276;2023-12-20T01:03:29;100330.28;;;5.23;44.22
62592;BME280;48659;41.622;2.276;2023-12-20T01:05:57;100338.05;;;2.14;49.64
62592;BME280;48659;41.622;2.276;2023-12-20T01:08:24;100342.44;;;3.29;49.57
62592;BME280;48659;41.622;2.276;2023-12-20T01:10:52;100336.25;;;2.82;49.11
62592;BME280;48659;41.622;2.276;2023-12-20T01:13:19;100328.18;;;2.67;50.57
62592;BME280;48659;41.622;2.276;2023-12-20T01:15:47;100326.86;;;3.20;48.56
62592;BME280;48659;41.622;2.276;2023-12-20T01:18:15;100339.18;;;1.52;52.28
62592;BME280;48659;41.622;2.276;2023-12-20T01:20:42;100340.08;;;3.70;47.98
62592;BME280;48659;41.622;2.276;2023-12-20T01:23:10;100349.44;;;1.69;52.39
62592;BME280;48659;41.622;2.276;2023-12-20T01:25:37;100360.63;;;1.07;55.31
62592;BME280;48659;41.622;2.276;2023-12-20T01:28:05;100364.20;;;1.22;55.76
62592;BME280;48659;41.622;2.276;2023-12-20T01:30:33;100364.01;;;2.58;52.54
62592;BME280;48659;41.622;2.276;2023-12-20T01:33:02;100362.40;;;3.14;51.82
62592;BME280;48659;41.622;2.276;2023-12-20T01:35:30;100365.75;;;2.40;51.05
62592;BME280;48659;41.622;2.276;2023-12-20T01:37:57;100362.52;;;4.11;48.53
62592;BME280;48659;41.622;2.276;2023-12-20T01:40:24;100358.57;;;5.15;45.76
62592;BME280;48659;41.622;2.276;2023-12-20T01:42:59;100365.79;;;5.17;45.29
62592;BME280;48659;41.622;2.276;2023-12-20T01:45:26;100370.03;;;4.50;47.50
62592;BME280;48659;41.622;2.276;2023-12-20T01:47:59;100366.50;;;4.02;47.25
62592;BME280;48659;41.622;2.276;2023-12-20T01:50:28;100356.38;;;4.00;47.45
62592;BME280;48659;41.622;2.276;2023-12-20T01:52:56;100349.47;;;4.44;46.76
62592;BME280;48659;41.622;2.276;2023-12-20T01:55:28;100351.15;;;3.77;46.89
62592;BME280;48659;41.622;2.276;2023-12-20T01:57:59;100361.08;;;5.04;45.06
62592;BME280;48659;41.622;2.276;2023-12-20T02:00:26;100366.61;;;2.87;50.04
62592;BME280;48659;41.622;2.276;2023-12-20T02:02:55;100361.91;;;4.49;46.47
62592;BME280;48659;41.622;2.276;2023-12-20T02:05:24;100355.54;;;4.74;45.96
62592;BME280;48659;41.622;2.276;2023-12-20T02:07:52;100354.40;;;4.95;45.45
62592;BME280;48659;41.622;2.276;2023-12-20T02:10:19;100361.62;;;4.50;45.80
62592;BME280;48659;41.622;2.276;2023-12-20T02:12:48;100356.42;;;4.94;45.47
62592;BME280;48659;41.622;2.276;2023-12-20T02:15:15;100355.38;;;4.90;45.51
62592;BME280;48659;41.622;2.276;2023-12-20T02:17:43;100364.28;;;4.98;45.65
62592;BME280;48659;41.622;2.276;2023-12-20T02:20:11;100364.51;;;2.81;49.80
62592;BME280;48659;41.622;2.276;2023-12-20T02:22:39;100365.00;;;3.28;48.65
62592;BME280;48659;41.622;2.276;2023-12-20T02:25:07;100379.56;;;1.92;51.69
62592;BME280;48659;41.622;2.276;2023-12-20T02:27:35;100379.72;;;3.19;49.65
62592;BME280;48659;41.622;2.276;2023-12-20T02:30:03;100371.29;;;3.03;49.77
62592;BME280;48659;41.622;2.276;2023-12-20T02:32:31;100360.32;;;3.47;48.84
62592;BME280;48659;41.622;2.276;2023-12-20T02:34:58;100370.47;;;1.10;54.76
62592;BME280;48659;41.622;2.276;2023-12-20T02:37:25;100376.13;;;2.56;51.34
62592;BME280;48659;41.622;2.276;2023-12-20T02:39:53;100400.62;;;0.55;55.59
62592;BME280;48659;41.622;2.276;2023-12-20T02:42:20;100398.02;;;-0.34;59.41
62592;BME280;48659;41.622;2.276;2023-12-20T02:44:57;100393.03;;;0.81;55.79
62592;BME280;48659;41.622;2.276;2023-12-20T02:47:24;100387.40;;;2.47;51.91
62592;BME280;48659;41.622;2.276;2023-12-20T02:49:52;100389.36;;;3.02;50.04
62592;BME280;48659;41.622;2.276;2023-12-20T02:52:19;100390.86;;;3.16;49.31
62592;BME280;48659;41.622;2.276;2023-12-20T02:54:47;100392.95;;;3.23;50.17
62592;BME280;48659;41.622;2.276;2023-12-20T02:57:15;100388.34;;;4.32;48.48
62592;BME280;48659;41.622;2.276;2023-12-20T02:59:42;100382.94;;;3.59;48.17
62592;BME280;48659;41.622;2.276;2023-12-20T03:02:09;100382.99;;;3.62;48.24
62592;BME280;48659;41.622;2.276;2023-12-20T03:04:37;100381.28;;;4.49;47.82
62592;BME280;48659;41.622;2.276;2023-12-20T03:07:04;100375.25;;;4.04;47.69
62592;BME280;48659;41.622;2.276;2023-12-20T03:09:31;100368.91;;;3.35;49.66
62592;BME280;48659;41.622;2.276;2023-12-20T03:11:59;100360.17;;;4.21;48.16
62592;BME280;48659;41.622;2.276;2023-12-20T03:14:26;100348.13;;;3.69;48.62
62592;BME280;48659;41.622;2.276;2023-12-20T03:17:00;100338.38;;;3.47;49.16
62592;BME280;48659;41.622;2.276;2023-12-20T03:19:27;100337.39;;;3.58;48.79
62592;BME280;48659;41.622;2.276;2023-12-20T03:21:54;100333.10;;;4.19;47.37
62592;BME280;48659;41.622;2.276;2023-12-20T03:24:21;100335.26;;;2.42;50.68
62592;BME280;48659;41.622;2.276;2023-12-20T03:26:49;100343.42;;;1.40;53.97
62592;BME280;48659;41.622;2.276;2023-12-20T03:29:16;100344.95;;;1.73;53.19
62592;BME280;48659;41.622;2.276;2023-12-20T03:31:44;100342.12;;;3.62;50.17
62592;BME280;48659;41.622;2.276;2023-12-20T03:34:11;100335.51;;;4.10;47.89
62592;BME280;48659;41.622;2.276;2023-12-20T03:36:38;100327.37;;;2.84;49.28
62592;BME280;48659;41.622;2.276;2023-12-20T03:39:06;100332.55;;;3.13;49.76
62592;BME280;48659;41.622;2.276;2023-12-20T03:41:34;100341.25;;;4.69;46.89
62592;BME280;48659;41.622;2.276;2023-12-20T03:44:01;100343.60;;;2.88;49.60
62592;BME280;48659;41.622;2.276;2023-12-20T03:46:28;100342.62;;;3.52;48.84
62592;BME280;48659;41.622;2.276;2023-12-20T03:48:56;100342.51;;;3.02;51.52
62592;BME280;48659;41.622;2.276;2023-12-20T03:51:23;100342.91;;;3.44;49.09
62592;BME280;48659;41.622;2.276;2023-12-20T03:53:51;100343.28;;;4.12;47.41
62592;BME280;48659;41.622;2.276;2023-12-20T03:56:19;100328.80;;;5.32;45.78
62592;BME280;48659;41.622;2.276;2023-12-20T03:58:47;100321.69;;;6.02;43.81
62592;BME280;48659;41.622;2.276;2023-12-20T04:01:14;100324.82;;;5.26;44.41
62592;BME280;48659;41.622;2.276;2023-12-20T04:03:42;100332.84;;;4.63;45.97
62592;BME280;48659;41.622;2.276;2023-12-20T04:06:09;100328.45;;;4.10;47.32
62592;BME280;48659;41.622;2.276;2023-12-20T04:08:36;100324.25;;;4.81;45.70
62592;BME280;48659;41.622;2.276;2023-12-20T04:11:03;100339.41;;;4.42;46.27
62592;BME280;48659;41.622;2.276;2023-12-20T04:13:31;100350.40;;;4.74;47.07
62592;BME280;48659;41.622;2.276;2023-12-20T04:15:59;100349.41;;;4.65;47.00
62592;BME280;48659;41.622;2.276;2023-12-20T04:18:26;100335.41;;;5.20;46.08
62592;BME280;48659;41.622;2.276;2023-12-20T04:20:59;100329.10;;;4.21;47.11
62592;BME280;48659;41.622;2.276;2023-12-20T04:23:26;100323.27;;;5.24;46.04
62592;BME280;48659;41.622;2.276;2023-12-20T04:25:56;100319.27;;;5.05;45.82
62592;BME280;48659;41.622;2.276;2023-12-20T04:28:23;100307.14;;;5.84;44.32
62592;BME280;48659;41.622;2.276;2023-12-20T04:30:50;100293.05;;;6.37;43.32
62592;BME280;48659;41.622;2.276;2023-12-20T04:33:17;100292.96;;;6.16;43.18
62592;BME280;48659;41.622;2.276;2023-12-20T04:35:45;100295.38;;;6.29;42.81
62592;BME280;48659;41.622;2.276;2023-12-20T04:38:12;100306.19;;;6.19;42.57
62592;BME280;48659;41.622;2.276;2023-12-20T04:40:40;100307.20;;;6.81;41.67
62592;BME280;48659;41.622;2.276;2023-12-20T04:43:08;100301.78;;;6.54;42.29
62592;BME280;48659;41.622;2.276;2023-12-20T04:45:35;100294.01;;;6.20;42.77
62592;BME280;48659;41.622;2.276;2023-12-20T04:48:04;100295.62;;;5.72;43.11
62592;BME280;48659;41.622;2.276;2023-12-20T04:50:31;100314.58;;;6.20;43.19
62592;BME280;48659;41.622;2.276;2023-12-20T04:52:58;100325.59;;;5.53;44.17
62592;BME280;48659;41.622;2.276;2023-12-20T04:55:26;100325.12;;;6.47;44.40
62592;BME280;48659;41.622;2.276;2023-12-20T04:57:57;100315.80;;;7.01;43.50
62592;BME280;48659;41.622;2.276;2023-12-20T05:00:25;100311.39;;;6.62;42.96
62592;BME280;48659;41.622;2.276;2023-12-20T05:02:52;100309.84;;;6.73;43.79
62592;BME280;48659;41.622;2.276;2023-12-20T05:05:19;100310.85;;;6.46;43.26
62592;BME280;48659;41.622;2.276;2023-12-20T05:07:46;100301.30;;;6.76;42.58
62592;BME280;48659;41.622;2.276;2023-12-20T05:10:14;100297.24;;;6.66;43.47
62592;BME280;48659;41.622;2.276;2023-12-20T05:12:41;100297.45;;;5.87;43.83
62592;BME280;48659;41.622;2.276;2023-12-20T05:15:09;100300.96;;;6.21;43.52
62592;BME280;48659;41.622;2.276;2023-12-20T05:17:36;100303.46;;;6.18;44.23
62592;BME280;48659;41.622;2.276;2023-12-20T05:20:05;100297.27;;;6.59;43.18
62592;BME280;48659;41.622;2.276;2023-12-20T05:22:32;100293.56;;;6.78;42.47
62592;BME280;48659;41.622;2.276;2023-12-20T05:25:00;100304.83;;;6.20;43.70
62592;BME280;48659;41.622;2.276;2023-12-20T05:27:27;100299.25;;;6.88;42.67
62592;BME280;48659;41.622;2.276;2023-12-20T05:29:56;100299.90;;;6.44;43.17
62592;BME280;48659;41.622;2.276;2023-12-20T05:32:23;100294.10;;;6.03;44.06
62592;BME280;48659;41.622;2.276;2023-12-20T05:34:51;100290.85;;;6.19;43.67
62592;BME280;48659;41.622;2.276;2023-12-20T05:37:19;100291.02;;;6.35;43.43
62592;BME280;48659;41.622;2.276;2023-12-20T05:39:46;100295.75;;;6.22;43.76
62592;BME280;48659;41.622;2.276;2023-12-20T05:42:13;100300.73;;;6.00;44.09
62592;BME280;48659;41.622;2.276;2023-12-20T05:44:41;100294.86;;;6.37;43.69
62592;BME280;48659;41.622;2.276;2023-12-20T05:47:08;100289.38;;;6.72;43.47
62592;BME280;48659;41.622;2.276;2023-12-20T05:49:35;100284.76;;;6.07;44.24
62592;BME280;48659;41.622;2.276;2023-12-20T05:52:03;100289.62;;;4.23;47.80
62592;BME280;48659;41.622;2.276;2023-12-20T05:54:30;100282.21;;;6.06;45.54
62592;BME280;48659;41.622;2.276;2023-12-20T05:56:58;100287.73;;;5.49;45.59
62592;BME280;48659;41.622;2.276;2023-12-20T05:59:25;100286.94;;;6.59;43.93
62592;BME280;48659;41.622;2.276;2023-12-20T06:01:59;100287.67;;;6.74;43.76
62592;BME280;48659;41.622;2.276;2023-12-20T06:04:27;100295.90;;;6.69;44.42
62592;BME280;48659;41.622;2.276;2023-12-20T06:06:57;100295.61;;;6.73;44.20
62592;BME280;48659;41.622;2.276;2023-12-20T06:09:26;100287.41;;;7.03;43.87
62592;BME280;48659;41.622;2.276;2023-12-20T06:11:53;100287.04;;;6.34;44.26
62592;BME280;48659;41.622;2.276;2023-12-20T06:14:21;100287.91;;;6.68;44.05
62592;BME280;48659;41.622;2.276;2023-12-20T06:16:53;100281.49;;;7.05;42.95
62592;BME280;48659;41.622;2.276;2023-12-20T06:19:21;100276.55;;;6.84;43.81
62592;BME280;48659;41.622;2.276;2023-12-20T06:21:58;100270.10;;;7.25;42.97
62592;BME280;48659;41.622;2.276;2023-12-20T06:24:25;100272.29;;;6.43;44.48
62592;BME280;48659;41.622;2.276;2023-12-20T06:26:58;100268.63;;;6.67;44.26
62592;BME280;48659;41.622;2.276;2023-12-20T06:29:25;100262.85;;;6.05;45.18
62592;BME280;48659;41.622;2.276;2023-12-20T06:31:57;100264.42;;;6.21;44.98
62592;BME280;48659;41.622;2.276;2023-12-20T06:34:24;100257.11;;;7.12;43.89
62592;BME280;48659;41.622;2.276;2023-12-20T06:36:56;100236.94;;;7.08;44.73
62592;BME280;48659;41.622;2.276;2023-12-20T06:39:24;100218.00;;;6.42;45.93
62592;BME280;48659;41.622;2.276;2023-12-20T06:41:50;100214.78;;;6.60;44.97
62592;BME280;48659;41.622;2.276;2023-12-20T06:44:18;100224.30;;;6.80;44.36
62592;BME280;48659;41.622;2.276;2023-12-20T06:46:46;100233.96;;;6.64;45.09
62592;BME280;48659;41.622;2.276;2023-12-20T06:49:13;100242.28;;;6.84;44.78
62592;BME280;48659;41.622;2.276;2023-12-20T06:51:41;100244.48;;;6.88;44.26
62592;BME280;48659;41.622;2.276;2023-12-20T06:54:09;100242.17;;;6.62;45.05
62592;BME280;48659;41.622;2.276;2023-12-20T06:56:36;100250.68;;;6.13;45.72
62592;BME280;48659;41.622;2.276;2023-12-20T06:59:04;100261.09;;;6.10;46.27
62592;BME280;48659;41.622;2.276;2023-12-20T07:01:31;100274.02;;;4.34;48.72
62592;BME280;48659;41.622;2.276;2023-12-20T07:03:58;100283.95;;;2.33;54.99
62592;BME280;48659;41.622;2.276;2023-12-20T07:06:25;100282.22;;;4.28;50.87
62592;BME280;48659;41.622;2.276;2023-12-20T07:08:57;100276.12;;;5.59;48.14
62592;BME280;48659;41.622;2.276;2023-12-20T07:11:24;100282.07;;;4.28;50.24
62592;BME280;48659;41.622;2.276;2023-12-20T07:13:56;100287.57;;;5.48;48.17
62592;BME280;48659;41.622;2.276;2023-12-20T07:16:24;100274.32;;;5.24;48.90
62592;BME280;48659;41.622;2.276;2023-12-20T07:18:56;100254.24;;;5.80;47.34
62592;BME280;48659;41.622;2.276;2023-12-20T07:21:23;100248.45;;;5.88;46.21
62592;BME280;48659;41.622;2.276;2023-12-20T07:23:50;100255.35;;;5.77;46.72
62592;BME280;48659;41.622;2.276;2023-12-20T07:26:18;100254.79;;;5.95;47.02
62592;BME280;48659;41.622;2.276;2023-12-20T07:28:45;100250.70;;;6.36;46.38
62592;BME280;48659;41.622;2.276;2023-12-20T07:31:12;100257.43;;;5.75;46.93
62592;BME280;48659;41.622;2.276;2023-12-20T07:33:42;100280.03;;;4.35;49.84
62592;BME280;48659;41.622;2.276;2023-12-20T07:36:10;100294.67;;;3.79;51.79
62592;BME280;48659;41.622;2.276;2023-12-20T07:38:37;100294.11;;;5.15;49.61
62592;BME280;48659;41.622;2.276;2023-12-20T07:41:04;100274.93;;;5.44;47.40
62592;BME280;48659;41.622;2.276;2023-12-20T07:43:32;100263.73;;;6.50;46.41
62592;BME280;48659;41.622;2.276;2023-12-20T07:46:04;100271.99;;;5.61;47.72
62592;BME280;48659;41.622;2.276;2023-12-20T07:48:33;100270.55;;;5.60;47.55
62592;BME280;48659;41.622;2.276;2023-12-20T07:51:01;100268.74;;;5.02;48.72
62592;BME280;48659;41.622;2.276;2023-12-20T07:53:29;100271.50;;;6.43;46.24
62592;BME280;48659;41.622;2.276;2023-12-20T07:55:57;100274.10;;;6.36;45.87
62592;BME280;48659;41.622;2.276;2023-12-20T07:58:24;100276.47;;;6.60;45.17
62592;BME280;48659;41.622;2.276;2023-12-20T08:00:51;100283.35;;;6.36;46.16
62592;BME280;48659;41.622;2.276;2023-12-20T08:03:19;100285.84;;;6.84;45.36
62592;BME280;48659;41.622;2.276;2023-12-20T08:05:46;100287.97;;;7.02;45.50
62592;BME280;48659;41.622;2.276;2023-12-20T08:08:14;100295.32;;;6.49;45.48
62592;BME280;48659;41.622;2.276;2023-12-20T08:10:41;100303.13;;;5.52;46.68
62592;BME280;48659;41.622;2.276;2023-12-20T08:13:09;100302.93;;;6.76;45.55
62592;BME280;48659;41.622;2.276;2023-12-20T08:15:36;100293.60;;;7.61;44.30
62592;BME280;48659;41.622;2.276;2023-12-20T08:18:04;100298.51;;;6.86;45.27
62592;BME280;48659;41.622;2.276;2023-12-20T08:20:32;100303.75;;;6.61;45.86
62592;BME280;48659;41.622;2.276;2023-12-20T08:22:59;100309.73;;;6.89;44.82
62592;BME280;48659;41.622;2.276;2023-12-20T08:25:27;100307.98;;;7.41;43.94
62592;BME280;48659;41.622;2.276;2023-12-20T08:27:58;100309.69;;;6.80;45.70
62592;BME280;48659;41.622;2.276;2023-12-20T08:30:26;100313.22;;;6.85;45.92
62592;BME280;48659;41.622;2.276;2023-12-20T08:32:59;100316.19;;;6.20;45.49
62592;BME280;48659;41.622;2.276;2023-12-20T08:35:27;100328.19;;;5.80;46.66
62592;BME280;48659;41.622;2.276;2023-12-20T08:37:55;100327.63;;;7.64;44.17
62592;BME280;48659;41.622;2.276;2023-12-20T08:40:22;100326.07;;;6.21;46.75
62592;BME280;48659;41.622;2.276;2023-12-20T08:42:57;100322.64;;;7.47;44.34
62592;BME280;48659;41.622;2.276;2023-12-20T08:45:25;100330.48;;;8.01;42.73
62592;BME280;48659;41.622;2.276;2023-12-20T08:47:58;100333.03;;;8.50;42.60
62592;BME280;48659;41.622;2.276;2023-12-20T08:50:25;100335.88;;;7.84;42.88
62592;BME280;48659;41.622;2.276;2023-12-20T08:52:58;100338.97;;;8.24;42.57
62592;BME280;48659;41.622;2.276;2023-12-20T08:55:25;100345.85;;;8.31;42.58
62592;BME280;48659;41.622;2.276;2023-12-20T08:57:57;100348.77;;;8.53;41.88
62592;BME280;48659;41.622;2.276;2023-12-20T09:00:24;100348.50;;;9.12;41.07
62592;BME280;48659;41.622;2.276;2023-12-20T09:02:58;100350.64;;;8.96;41.83
62592;BME280;48659;41.622;2.276;2023-12-20T09:05:25;100347.49;;;9.12;40.83
62592;BME280;48659;41.622;2.276;2023-12-20T09:07:57;100350.32;;;9.46;40.08
62592;BME280;48659;41.622;2.276;2023-12-20T09:10:25;100357.42;;;8.20;42.68
62592;BME280;48659;41.622;2.276;2023-12-20T09:12:59;100359.34;;;8.78;41.90
62592;BME280;48659;41.622;2.276;2023-12-20T09:15:27;100360.00;;;8.72;42.48
62592;BME280;48659;41.622;2.276;2023-12-20T09:17:57;100362.80;;;9.22;41.34
62592;BME280;48659;41.622;2.276;2023-12-20T09:20:25;100371.91;;;8.48;43.69
62592;BME280;48659;41.622;2.276;2023-12-20T09:22:52;100374.03;;;9.04;42.31
62592;BME280;48659;41.622;2.276;2023-12-20T09:25:19;100376.51;;;9.40;40.96
62592;BME280;48659;41.622;2.276;2023-12-20T09:27:47;100370.02;;;9.69;40.53
62592;BME280;48659;41.622;2.276;2023-12-20T09:30:14;100362.65;;;9.92;40.56
62592;BME280;48659;41.622;2.276;2023-12-20T09:32:42;100357.31;;;10.45;39.68
62592;BME280;48659;41.622;2.276;2023-12-20T09:35:09;100355.35;;;10.03;39.56
62592;BME280;48659;41.622;2.276;2023-12-20T09:37:36;100356.83;;;10.28;39.77
62592;BME280;48659;41.622;2.276;2023-12-20T09:40:05;100360.15;;;10.49;38.79
62592;BME280;48659;41.622;2.276;2023-12-20T09:42:39;100360.65;;;10.44;39.00
62592;BME280;48659;41.622;2.276;2023-12-20T09:45:09;100357.76;;;10.28;39.04
62592;BME280;48659;41.622;2.276;2023-12-20T09:47:41;100350.74;;;10.53;38.42
62592;BME280;48659;41.622;2.276;2023-12-20T09:50:10;100351.63;;;10.95;37.89
62592;BME280;48659;41.622;2.276;2023-12-20T09:52:39;100350.41;;;10.80;38.77
62592;BME280;48659;41.622;2.276;2023-12-20T09:55:07;100347.53;;;10.78;37.99
62592;BME280;48659;41.622;2.276;2023-12-20T09:57:35;100340.60;;;10.67;38.37
62592;BME280;48659;41.622;2.276;2023-12-20T10:00:04;100334.43;;;10.44;38.52
62592;BME280;48659;41.622;2.276;2023-12-20T10:02:32;100332.56;;;10.75;37.93
62592;BME280;48659;41.622;2.276;2023-12-20T10:05:00;100325.32;;;10.92;37.56
62592;BME280;48659;41.622;2.276;2023-12-20T10:07:28;100326.37;;;11.33;37.76
62592;BME280;48659;41.622;2.276;2023-12-20T10:09:57;100319.34;;;11.20;37.60
62592;BME280;48659;41.622;2.276;2023-12-20T10:12:25;100316.47;;;10.73;38.31
62592;BME280;48659;41.622;2.276;2023-12-20T10:14:58;100314.07;;;11.06;37.60
62592;BME280;48659;41.622;2.276;2023-12-20T10:17:27;100315.18;;;11.14;36.91
62592;BME280;48659;41.622;2.276;2023-12-20T10:19:55;100317.25;;;10.60;38.13
62592;BME280;48659;41.622;2.276;2023-12-20T10:22:23;100314.11;;;11.18;37.61
62592;BME280;48659;41.622;2.276;2023-12-20T10:24:58;100312.81;;;11.42;36.96
62592;BME280;48659;41.622;2.276;2023-12-20T10:27:25;100314.19;;;10.46;38.21
62592;BME280;48659;41.622;2.276;2023-12-20T10:29:58;100306.34;;;10.39;38.27
62592;BME280;48659;41.622;2.276;2023-12-20T10:32:27;100295.29;;;11.64;36.99
62592;BME280;48659;41.622;2.276;2023-12-20T10:34:57;100293.71;;;11.48;37.79
62592;BME280;48659;41.622;2.276;2023-12-20T10:37:24;100289.91;;;11.22;37.43
62592;BME280;48659;41.622;2.276;2023-12-20T10:39:59;100286.10;;;11.06;37.31
62592;BME280;48659;41.622;2.276;2023-12-20T10:42:31;100293.98;;;11.58;36.64
62592;BME280;48659;41.622;2.276;2023-12-20T10:44:59;100293.05;;;11.14;37.24
62592;BME280;48659;41.622;2.276;2023-12-20T10:47:28;100283.32;;;11.55;36.28
62592;BME280;48659;41.622;2.276;2023-12-20T10:49:59;100280.70;;;11.39;36.95
62592;BME280;48659;41.622;2.276;2023-12-20T10:52:28;100276.80;;;11.66;36.53
62592;BME280;48659;41.622;2.276;2023-12-20T10:54:56;100273.25;;;11.80;35.88
62592;BME280;48659;41.622;2.276;2023-12-20T10:57:27;100270.84;;;10.98;36.94
62592;BME280;48659;41.622;2.276;2023-12-20T11:00:01;100263.71;;;11.83;35.84
62592;BME280;48659;41.622;2.276;2023-12-20T11:02:30;100253.52;;;11.89;35.60
62592;BME280;48659;41.622;2.276;2023-12-20T11:05:06;100261.93;;;10.62;37.24
62592;BME280;48659;41.622;2.276;2023-12-20T11:07:42;100254.03;;;11.78;35.79
62592;BME280;48659;41.622;2.276;2023-12-20T11:10:20;100263.68;;;12.02;35.65
62592;BME280;48659;41.622;2.276;2023-12-20T11:13:02;100265.11;;;12.29;35.72
62592;BME280;48659;41.622;2.276;2023-12-20T11:15:33;100259.64;;;12.44;35.20
62592;BME280;48659;41.622;2.276;2023-12-20T11:18:00;100263.98;;;12.56;36.02
62592;BME280;48659;41.622;2.276;2023-12-20T11:20:36;100256.14;;;12.22;36.15
62592;BME280;48659;41.622;2.276;2023-12-20T11:23:04;100252.63;;;12.40;35.78
62592;BME280;48659;41.622;2.276;2023-12-20T11:25:47;100239.95;;;11.44;37.33
62592;BME280;48659;41.622;2.276;2023-12-20T11:28:15;100234.23;;;11.86;35.82
62592;BME280;48659;41.622;2.276;2023-12-20T11:30:43;100220.48;;;12.31;35.34
62592;BME280;48659;41.622;2.276;2023-12-20T11:33:13;100218.36;;;12.16;34.79
62592;BME280;48659;41.622;2.276;2023-12-20T11:35:41;100223.44;;;11.69;35.28
62592;BME280;48659;41.622;2.276;2023-12-20T11:38:09;100228.38;;;12.12;34.82
62592;BME280;48659;41.622;2.276;2023-12-20T11:40:37;100235.31;;;10.20;38.13
62592;BME280;48659;41.622;2.276;2023-12-20T11:43:05;100233.96;;;11.03;36.89
62592;BME280;48659;41.622;2.276;2023-12-20T11:45:32;100225.52;;;11.36;36.15
62592;BME280;48659;41.622;2.276;2023-12-20T11:48:02;100221.24;;;11.91;35.44
62592;BME280;48659;41.622;2.276;2023-12-20T11:50:30;100212.55;;;12.08;35.28
62592;BME280;48659;41.622;2.276;2023-12-20T11:52:57;100215.20;;;12.10;36.23
62592;BME280;48659;41.622;2.276;2023-12-20T11:55:25;100222.02;;;12.21;35.72
62592;BME280;48659;41.622;2.276;2023-12-20T11:57:53;100222.89;;;11.90;35.41
62592;BME280;48659;41.622;2.276;2023-12-20T12:00:20;100221.64;;;12.45;35.16
62592;BME280;48659;41.622;2.276;2023-12-20T12:03:03;100211.57;;;12.15;35.11
62592;BME280;48659;41.622;2.276;2023-12-20T12:05:31;100198.40;;;12.24;34.63
62592;BME280;48659;41.622;2.276;2023-12-20T12:07:59;100192.09;;;12.50;34.69
62592;BME280;48659;41.622;2.276;2023-12-20T12:10:26;100195.66;;;12.12;35.34
62592;BME280;48659;41.622;2.276;2023-12-20T12:12:57;100199.72;;;12.01;38.44
62592;BME280;48659;41.622;2.276;2023-12-20T12:15:25;100194.52;;;12.64;36.09
62592;BME280;48659;41.622;2.276;2023-12-20T12:17:58;100192.75;;;12.26;36.52
62592;BME280;48659;41.622;2.276;2023-12-20T12:20:25;100181.76;;;11.79;36.01
62592;BME280;48659;41.622;2.276;2023-12-20T12:22:58;100173.29;;;12.67;34.82
62592;BME280;48659;41.622;2.276;2023-12-20T12:25:26;100165.34;;;12.89;34.63
62592;BME280;48659;41.622;2.276;2023-12-20T12:27:53;100168.76;;;12.52;34.68
62592;BME280;48659;41.622;2.276;2023-12-20T12:30:21;100184.37;;;11.97;36.74
62592;BME280;48659;41.622;2.276;2023-12-20T12:32:50;100180.87;;;12.28;35.24
62592;BME280;48659;41.622;2.276;2023-12-20T12:35:17;100167.67;;;12.44;35.62
62592;BME280;48659;41.622;2.276;2023-12-20T12:37:44;100161.55;;;11.68;36.20
62592;BME280;48659;41.622;2.276;2023-12-20T12:40:13;100153.10;;;12.52;35.28
62592;BME280;48659;41.622;2.276;2023-12-20T12:42:44;100157.50;;;12.41;35.19
62592;BME280;48659;41.622;2.276;2023-12-20T12:45:11;100152.13;;;12.83;34.54
62592;BME280;48659;41.622;2.276;2023-12-20T12:47:39;100150.62;;;12.64;34.77
62592;BME280;48659;41.622;2.276;2023-12-20T12:50:07;100136.78;;;12.90;34.67
62592;BME280;48659;41.622;2.276;2023-12-20T12:52:35;100129.75;;;12.99;35.49
62592;BME280;48659;41.622;2.276;2023-12-20T12:55:03;100125.06;;;12.92;34.92
62592;BME280;48659;41.622;2.276;2023-12-20T12:57:31;100121.06;;;12.99;34.94
62592;BME280;48659;41.622;2.276;2023-12-20T12:59:59;100117.64;;;12.82;35.28
62592;BME280;48659;41.622;2.276;2023-12-20T13:02:26;100112.61;;;12.90;34.90
62592;BME280;48659;41.622;2.276;2023-12-20T13:04:54;100109.84;;;13.32;34.56